createdAt,value
2023-02-17T00:01:12.265Z,6.70
2023-02-17T00:03:40.535Z,4.40
2023-02-17T00:06:09.648Z,4.30
2023-02-17T00:08:37.932Z,6.97
2023-02-17T00:11:06.231Z,3.17
2023-02-17T00:13:34.294Z,6.87
2023-02-17T00:16:08.315Z,5.73
2023-02-17T00:18:36.622Z,4.87
2023-02-17T00:21:13.583Z,6.90
2023-02-17T00:23:41.564Z,7.73
2023-02-17T00:26:09.952Z,5.97
2023-02-17T00:28:38.116Z,4.60
2023-02-17T00:31:12.524Z,5.70
2023-02-17T00:33:40.595Z,4.20
2023-02-17T00:36:11.856Z,8.07
2023-02-17T00:38:40.450Z,7.30
2023-02-17T00:41:08.425Z,5.17
2023-02-17T00:43:36.805Z,5.37
2023-02-17T00:46:05.199Z,4.93
2023-02-17T00:48:34.846Z,5.40
2023-02-17T00:51:02.925Z,4.53
2023-02-17T00:53:31.009Z,5.53
2023-02-17T00:55:59.005Z,7.23
2023-02-17T00:58:27.457Z,5.20
2023-02-17T01:00:57.010Z,6.20
2023-02-17T01:03:26.164Z,5.20
2023-02-17T01:05:57.472Z,5.73
2023-02-17T01:08:26.494Z,4.90
2023-02-17T01:10:54.960Z,4.40
2023-02-17T01:13:23.086Z,5.17
2023-02-17T01:15:53.054Z,6.47
2023-02-17T01:18:24.052Z,4.67
2023-02-17T01:20:52.655Z,6.27
2023-02-17T01:23:22.089Z,3.77
2023-02-17T01:25:50.653Z,5.10
2023-02-17T01:28:21.500Z,7.70
2023-02-17T01:30:50.127Z,5.07
2023-02-17T01:33:18.364Z,5.17
2023-02-17T01:35:46.648Z,4.20
2023-02-17T01:38:14.626Z,6.47
2023-02-17T01:40:49.342Z,5.67
2023-02-17T01:43:18.828Z,5.67
2023-02-17T01:45:52.557Z,4.33
2023-02-17T01:48:23.562Z,4.60
2023-02-17T01:50:54.244Z,4.77
2023-02-17T01:53:27.364Z,4.67
2023-02-17T01:55:57.470Z,4.77
2023-02-17T01:58:27.443Z,5.80
2023-02-17T02:00:57.711Z,5.00
2023-02-17T02:03:26.332Z,6.30
2023-02-17T02:05:54.376Z,4.70
2023-02-17T02:08:22.370Z,3.90
2023-02-17T02:10:50.356Z,3.20
2023-02-17T02:13:19.823Z,5.57
2023-02-17T02:15:53.299Z,5.23
2023-02-17T02:18:40.793Z,7.00
2023-02-17T02:22:02.339Z,6.90
2023-02-17T02:24:40.946Z,5.07
2023-02-17T02:27:37.526Z,3.70
2023-02-17T02:30:40.193Z,8.93
2023-02-17T02:33:20.883Z,7.17
2023-02-17T02:35:57.311Z,6.60
2023-02-17T02:38:31.870Z,5.77
2023-02-17T02:41:05.222Z,7.07
2023-02-17T02:43:33.676Z,4.10
2023-02-17T02:46:01.795Z,7.57
2023-02-17T02:48:31.483Z,7.20
2023-02-17T02:51:33.777Z,4.40
2023-02-17T02:54:34.390Z,3.50
2023-02-17T02:57:14.976Z,5.17
2023-02-17T02:59:53.345Z,4.63
2023-02-17T03:02:30.593Z,5.20
2023-02-17T03:05:06.743Z,5.53
2023-02-17T03:07:39.331Z,5.90
2023-02-17T03:10:11.482Z,4.13
2023-02-17T03:12:40.426Z,3.90
2023-02-17T03:15:15.135Z,4.60
2023-02-17T03:17:43.130Z,5.37
2023-02-17T03:20:14.724Z,5.00
2023-02-17T03:22:46.034Z,5.87
2023-02-17T03:25:16.122Z,6.07
2023-02-17T03:27:45.715Z,4.00
2023-02-17T03:30:15.526Z,7.83
2023-02-17T03:32:43.830Z,7.20
2023-02-17T03:35:13.128Z,5.93
2023-02-17T03:37:41.219Z,6.30
2023-02-17T03:40:10.631Z,4.83
2023-02-17T03:42:38.795Z,6.40
2023-02-17T03:45:07.346Z,7.63
2023-02-17T03:47:35.308Z,5.40
2023-02-17T03:50:03.362Z,3.77
2023-02-17T03:52:32.727Z,5.30
2023-02-17T03:55:00.697Z,5.30
2023-02-17T03:57:28.666Z,5.13
2023-02-17T03:59:56.658Z,5.90
2023-02-17T04:02:24.674Z,4.97
2023-02-17T04:04:52.644Z,7.17
2023-02-17T04:07:20.603Z,5.10
2023-02-17T04:09:49.921Z,4.83
2023-02-17T04:12:18.007Z,5.40
2023-02-17T04:14:46.064Z,4.93
2023-02-17T04:17:14.122Z,5.73
2023-02-17T04:19:42.089Z,6.97
2023-02-17T04:22:10.110Z,7.80
2023-02-17T04:24:38.291Z,5.30
2023-02-17T04:27:07.718Z,5.97
2023-02-17T04:29:36.127Z,6.27
2023-02-17T04:32:04.399Z,4.90
2023-02-17T04:34:32.381Z,6.93
2023-02-17T04:37:00.439Z,6.47
2023-02-17T04:39:28.372Z,4.27
2023-02-17T04:41:56.307Z,6.87
2023-02-17T04:44:25.658Z,4.10
2023-02-17T04:46:53.674Z,4.87
2023-02-17T04:49:21.675Z,5.93
2023-02-17T04:51:49.662Z,6.77
2023-02-17T04:54:17.630Z,6.53
2023-02-17T04:56:45.601Z,3.87
2023-02-17T04:59:13.620Z,3.70
2023-02-17T05:01:43.002Z,4.73
2023-02-17T05:04:11.053Z,4.63
2023-02-17T05:06:39.050Z,7.87
2023-02-17T05:09:07.033Z,7.00
2023-02-17T05:11:35.011Z,7.10
2023-02-17T05:14:03.631Z,4.83
2023-02-17T05:16:31.671Z,3.33
2023-02-17T05:19:00.968Z,3.13
2023-02-17T05:21:29.013Z,3.40
2023-02-17T05:23:57.002Z,4.10
2023-02-17T05:26:25.117Z,3.73
2023-02-17T05:28:53.239Z,3.90
2023-02-17T05:31:21.348Z,4.70
2023-02-17T05:33:49.605Z,3.83
2023-02-17T05:36:18.948Z,5.30
2023-02-17T05:38:49.221Z,6.53
2023-02-17T05:41:17.293Z,6.17
2023-02-17T05:43:45.651Z,7.50
2023-02-17T05:46:13.642Z,6.47
2023-02-17T05:48:41.648Z,5.20
2023-02-17T05:51:09.634Z,5.47
2023-02-17T05:53:39.051Z,6.10
2023-02-17T05:56:07.935Z,7.33
2023-02-17T05:58:36.152Z,4.93
2023-02-17T06:01:09.137Z,5.03
2023-02-17T06:03:37.419Z,3.33
2023-02-17T06:06:07.290Z,5.10
2023-02-17T06:08:35.565Z,7.60
2023-02-17T06:11:05.532Z,4.30
2023-02-17T06:13:33.524Z,4.30
2023-02-17T06:16:01.961Z,2.90
2023-02-17T06:18:30.191Z,4.80
2023-02-17T06:20:59.076Z,4.70
2023-02-17T06:23:27.556Z,2.27
2023-02-17T06:25:55.844Z,4.97
2023-02-17T06:28:25.258Z,3.70
2023-02-17T06:30:53.305Z,5.17
2023-02-17T06:33:21.395Z,3.80
2023-02-17T06:35:51.233Z,4.27
2023-02-17T06:38:19.699Z,4.30
2023-02-17T06:40:47.861Z,3.63
2023-02-17T06:43:15.826Z,5.00
2023-02-17T06:45:45.256Z,3.73
2023-02-17T06:48:13.303Z,3.03
2023-02-17T06:50:41.326Z,3.70
2023-02-17T06:53:09.492Z,3.47
2023-02-17T06:55:38.981Z,3.77
2023-02-17T06:58:07.301Z,5.27
2023-02-17T07:00:35.489Z,2.30
2023-02-17T07:03:04.975Z,4.20
2023-02-17T07:05:35.174Z,4.40
2023-02-17T07:08:03.323Z,4.80
2023-02-17T07:10:31.343Z,4.13
2023-02-17T07:12:59.510Z,3.47
2023-02-17T07:15:27.577Z,6.03
2023-02-17T07:17:55.564Z,4.73
2023-02-17T07:20:24.916Z,5.50
2023-02-17T07:22:52.931Z,4.53
2023-02-17T07:25:20.961Z,3.33
2023-02-17T07:27:48.962Z,5.20
2023-02-17T07:30:17.613Z,6.90
2023-02-17T07:32:45.811Z,5.63
2023-02-17T07:35:13.798Z,4.00
2023-02-17T07:37:43.158Z,3.70
2023-02-17T07:40:11.902Z,3.97
2023-02-17T07:42:39.970Z,3.20
2023-02-17T07:45:08.759Z,8.53
2023-02-17T07:47:36.769Z,3.73
2023-02-17T07:50:04.836Z,3.70
2023-02-17T07:52:32.802Z,4.90
2023-02-17T07:55:02.204Z,5.37
2023-02-17T07:57:30.767Z,5.37
2023-02-17T07:59:58.778Z,3.53
2023-02-17T08:02:27.084Z,2.80
2023-02-17T08:04:55.042Z,5.07
2023-02-17T08:07:23.042Z,5.30
2023-02-17T08:10:08.498Z,2.57
2023-02-17T08:12:55.301Z,3.23
2023-02-17T08:15:23.368Z,7.10
2023-02-17T08:17:53.186Z,3.57
2023-02-17T08:20:21.422Z,5.70
2023-02-17T08:22:49.450Z,2.47
2023-02-17T08:25:17.608Z,2.90
2023-02-17T08:27:47.065Z,2.87
2023-02-17T08:30:15.462Z,3.17
2023-02-17T08:32:43.486Z,3.23
2023-02-17T08:35:11.524Z,3.07
2023-02-17T08:37:39.545Z,4.53
2023-02-17T08:40:09.110Z,4.93
2023-02-17T08:42:38.835Z,2.20
2023-02-17T08:45:08.869Z,4.83
2023-02-17T08:47:36.964Z,3.27
2023-02-17T08:50:06.963Z,3.03
2023-02-17T08:52:36.349Z,3.70
2023-02-17T08:55:04.821Z,5.43
2023-02-17T08:57:32.902Z,4.97
2023-02-17T09:00:00.912Z,3.13
2023-02-17T09:02:30.339Z,4.33
2023-02-17T09:04:58.417Z,5.10
2023-02-17T09:07:26.690Z,4.30
2023-02-17T09:09:54.679Z,2.63
2023-02-17T09:12:22.725Z,4.30
2023-02-17T09:14:50.666Z,3.53
2023-02-17T09:17:18.645Z,2.73
2023-02-17T09:19:48.369Z,4.87
2023-02-17T09:22:30.777Z,5.13
2023-02-17T09:24:59.929Z,2.30
2023-02-17T09:27:28.502Z,5.10
2023-02-17T09:29:57.652Z,5.70
2023-02-17T09:32:26.377Z,3.87
2023-02-17T09:34:55.993Z,4.30
2023-02-17T09:37:24.744Z,2.77
2023-02-17T09:39:52.746Z,4.30
2023-02-17T09:42:22.767Z,4.10
2023-02-17T09:44:54.763Z,3.20
2023-02-17T09:47:26.933Z,3.63
2023-02-17T09:50:03.869Z,4.47
2023-02-17T09:52:40.620Z,4.70
2023-02-17T09:55:11.931Z,3.47
2023-02-17T09:57:43.911Z,2.93
2023-02-17T10:00:17.077Z,2.60
2023-02-17T10:02:52.954Z,4.00
2023-02-17T10:05:26.530Z,4.80
2023-02-17T10:07:57.886Z,4.27
2023-02-17T10:10:31.024Z,4.00
2023-02-17T10:13:03.283Z,2.83
2023-02-17T10:15:36.777Z,3.83
2023-02-17T10:18:11.227Z,2.50
2023-02-17T10:20:43.190Z,3.60
2023-02-17T10:23:16.551Z,2.53
2023-02-17T10:26:06.328Z,3.20
2023-02-17T10:28:50.100Z,5.23
2023-02-17T10:31:27.133Z,3.37
2023-02-17T10:34:03.017Z,4.67
2023-02-17T10:36:44.521Z,3.07
2023-02-17T10:39:17.066Z,2.17
2023-02-17T10:41:49.238Z,2.07
2023-02-17T10:44:20.977Z,3.40
2023-02-17T10:46:50.941Z,3.63
2023-02-17T10:49:26.281Z,2.50
2023-02-17T10:51:55.741Z,2.20
2023-02-17T10:54:31.841Z,4.00
2023-02-17T10:57:03.410Z,6.17
2023-02-17T10:59:35.099Z,2.10
2023-02-17T11:02:17.325Z,2.47
2023-02-17T11:04:47.073Z,3.67
2023-02-17T11:07:18.710Z,4.57
2023-02-17T11:09:49.016Z,3.90
2023-02-17T11:12:23.115Z,2.80
2023-02-17T11:14:55.124Z,3.63
2023-02-17T11:17:29.289Z,3.63
2023-02-17T11:20:00.328Z,3.10
2023-02-17T11:22:35.272Z,3.13
2023-02-17T11:25:06.738Z,3.53
2023-02-17T11:27:35.795Z,3.30
2023-02-17T11:30:12.198Z,2.40
2023-02-17T11:32:40.236Z,3.10
2023-02-17T11:35:23.397Z,3.70
2023-02-17T11:37:52.906Z,3.10
2023-02-17T11:40:28.446Z,2.80
2023-02-17T11:42:58.673Z,3.53
2023-02-17T11:45:29.981Z,2.20
2023-02-17T11:48:12.807Z,5.30
2023-02-17T11:50:48.549Z,5.00
2023-02-17T11:53:27.191Z,2.13
2023-02-17T11:56:10.020Z,2.27
2023-02-17T11:58:50.671Z,2.10
2023-02-17T12:01:30.960Z,1.83
2023-02-17T12:04:25.901Z,1.70
2023-02-17T12:07:15.670Z,1.93
2023-02-17T12:09:53.572Z,3.43
2023-02-17T12:12:30.668Z,3.57
2023-02-17T12:15:07.110Z,3.10
2023-02-17T12:17:45.751Z,2.07
2023-02-17T12:20:40.594Z,2.60
2023-02-17T12:23:26.890Z,4.60
2023-02-17T12:26:00.437Z,5.93
2023-02-17T12:28:42.977Z,4.30
2023-02-17T12:31:22.136Z,3.70
2023-02-17T12:33:57.563Z,2.13
2023-02-17T12:36:31.539Z,6.77
2023-02-17T12:39:03.934Z,4.20
2023-02-17T12:41:38.343Z,2.90
2023-02-17T12:44:09.151Z,2.93
2023-02-17T12:46:40.984Z,2.00
2023-02-17T12:49:14.194Z,1.60
2023-02-17T12:51:45.529Z,2.23
2023-02-17T12:54:20.046Z,1.90
2023-02-17T12:57:06.552Z,2.07
2023-02-17T12:59:37.016Z,2.00
2023-02-17T13:02:07.581Z,2.50
2023-02-17T13:04:36.622Z,1.60
2023-02-17T13:07:16.798Z,1.70
2023-02-17T13:09:47.113Z,2.20
2023-02-17T13:12:39.062Z,1.97
2023-02-17T13:15:26.448Z,3.70
2023-02-17T13:17:56.703Z,3.33
2023-02-17T13:20:45.869Z,1.87
2023-02-17T13:23:26.519Z,1.30
2023-02-17T13:26:13.720Z,1.73
2023-02-17T13:28:43.599Z,1.27
2023-02-17T13:31:18.401Z,2.83
2023-02-17T13:33:51.899Z,1.20
2023-02-17T13:36:23.796Z,1.20
2023-02-17T13:39:01.449Z,1.10
2023-02-17T13:41:34.018Z,1.30
2023-02-17T13:44:27.665Z,1.30
2023-02-17T13:46:58.724Z,1.27
2023-02-17T13:49:28.359Z,2.27
2023-02-17T13:51:56.552Z,1.20
2023-02-17T13:54:24.803Z,1.43
2023-02-17T13:56:53.863Z,1.63
2023-02-17T13:59:28.222Z,1.20
2023-02-17T14:01:56.596Z,1.67
2023-02-17T14:04:28.153Z,1.07
2023-02-17T14:06:59.464Z,1.37
2023-02-17T14:09:30.591Z,1.10
2023-02-17T14:12:00.127Z,1.53
2023-02-17T14:14:32.586Z,1.10
2023-02-17T14:17:04.111Z,1.00
2023-02-17T14:19:44.340Z,1.57
2023-02-17T14:22:25.952Z,1.30
2023-02-17T14:25:01.119Z,1.17
2023-02-17T14:27:29.169Z,1.17
2023-02-17T14:29:58.510Z,2.43
2023-02-17T14:32:32.331Z,0.90
2023-02-17T14:35:21.446Z,1.00
2023-02-17T14:37:50.351Z,1.10
2023-02-17T14:40:20.630Z,1.03
2023-02-17T14:42:48.835Z,1.53
2023-02-17T14:45:19.221Z,1.20
2023-02-17T14:47:48.176Z,1.53
2023-02-17T14:50:17.404Z,1.30
2023-02-17T14:52:47.208Z,1.60
2023-02-17T14:55:19.743Z,1.10
2023-02-17T14:57:47.841Z,1.30
2023-02-17T15:00:18.412Z,1.10
2023-02-17T15:02:46.579Z,1.13
2023-02-17T15:05:14.661Z,1.53
2023-02-17T15:07:42.656Z,1.20
2023-02-17T15:10:19.324Z,1.30
2023-02-17T15:12:47.545Z,1.40
2023-02-17T15:15:18.588Z,1.33
2023-02-17T15:17:46.667Z,5.70
2023-02-17T15:20:16.033Z,1.33
2023-02-17T15:22:44.615Z,1.30
2023-02-17T15:25:15.948Z,1.50
2023-02-17T15:27:44.806Z,1.43
2023-02-17T15:30:14.330Z,2.17
2023-02-17T15:32:44.565Z,2.20
2023-02-17T15:35:19.033Z,1.43
2023-02-17T15:37:47.064Z,1.33
2023-02-17T15:40:16.568Z,1.77
2023-02-17T15:42:45.740Z,1.60
2023-02-17T15:45:16.755Z,1.00
2023-02-17T15:47:46.683Z,1.30
2023-02-17T15:50:19.208Z,1.70
2023-02-17T15:52:48.463Z,1.47
2023-02-17T15:55:17.149Z,1.30
2023-02-17T15:57:48.678Z,1.60
2023-02-17T16:00:23.135Z,3.13
2023-02-17T16:02:53.182Z,4.10
2023-02-17T16:05:23.574Z,1.80
2023-02-17T16:07:52.129Z,3.03
2023-02-17T16:10:22.745Z,2.07
2023-02-17T16:12:52.517Z,1.60
2023-02-17T16:15:22.608Z,1.67
2023-02-17T16:17:52.563Z,1.63
2023-02-17T16:20:22.755Z,3.13
2023-02-17T16:22:51.144Z,1.60
2023-02-17T16:25:20.371Z,2.30
2023-02-17T16:27:50.600Z,1.80
2023-02-17T16:30:21.328Z,1.47
2023-02-17T16:32:50.179Z,1.40
2023-02-17T16:35:21.001Z,1.10
2023-02-17T16:37:54.472Z,2.80
2023-02-17T16:40:26.007Z,1.87
2023-02-17T16:42:54.173Z,1.70
2023-02-17T16:45:25.021Z,1.70
2023-02-17T16:47:55.295Z,2.20
2023-02-17T16:50:26.993Z,1.53
2023-02-17T16:52:57.019Z,1.73
2023-02-17T16:55:28.519Z,2.73
2023-02-17T16:57:57.235Z,1.60
2023-02-17T17:00:27.695Z,2.70
2023-02-17T17:02:56.783Z,3.00
2023-02-17T17:05:28.527Z,1.87
2023-02-17T17:07:57.125Z,2.03
2023-02-17T17:10:27.780Z,2.03
2023-02-17T17:12:55.907Z,3.03
2023-02-17T17:15:24.619Z,1.83
2023-02-17T17:17:56.913Z,1.73
2023-02-17T17:20:31.117Z,2.93
2023-02-17T17:23:00.619Z,2.53
2023-02-17T17:25:29.592Z,6.00
2023-02-17T17:27:58.151Z,1.73
2023-02-17T17:30:28.334Z,2.60
2023-02-17T17:32:56.632Z,2.70
2023-02-17T17:35:27.527Z,2.50
2023-02-17T17:37:57.312Z,1.50
2023-02-17T17:40:28.186Z,2.30
2023-02-17T17:42:56.470Z,1.70
2023-02-17T17:45:25.758Z,2.07
2023-02-17T17:47:53.819Z,1.93
2023-02-17T17:50:24.960Z,2.10
2023-02-17T17:52:54.347Z,1.60
2023-02-17T17:55:22.318Z,3.30
2023-02-17T17:57:50.372Z,2.90
2023-02-17T18:00:19.857Z,5.00
2023-02-17T18:02:47.846Z,5.10
2023-02-17T18:05:15.878Z,2.53
2023-02-17T18:07:46.250Z,2.27
2023-02-17T18:10:16.289Z,1.73
2023-02-17T18:12:46.465Z,1.97
2023-02-17T18:15:15.856Z,1.90
2023-02-17T18:17:44.412Z,3.17
2023-02-17T18:20:13.557Z,1.73
2023-02-17T18:22:42.375Z,1.97
2023-02-17T18:25:11.046Z,1.80
2023-02-17T18:27:42.577Z,1.70
2023-02-17T18:30:17.974Z,2.00
2023-02-17T18:32:46.470Z,2.53
2023-02-17T18:35:15.101Z,2.73
2023-02-17T18:37:43.651Z,3.73
2023-02-17T18:40:13.500Z,7.97
2023-02-17T18:42:45.214Z,2.13
2023-02-17T18:45:13.550Z,2.57
2023-02-17T18:47:45.251Z,4.10
2023-02-17T18:50:14.391Z,3.07
2023-02-17T18:52:43.921Z,3.50
2023-02-17T18:55:12.771Z,4.07
2023-02-17T18:57:42.165Z,3.53
2023-02-17T19:00:12.967Z,5.07
2023-02-17T19:02:41.919Z,1.97
2023-02-17T19:05:11.461Z,3.20
2023-02-17T19:07:39.474Z,2.63
2023-02-17T19:10:08.753Z,4.53
2023-02-17T19:12:37.854Z,3.63
2023-02-17T19:15:08.206Z,3.30
2023-02-17T19:17:37.771Z,3.03
2023-02-17T19:20:06.506Z,3.73
2023-02-17T19:22:36.652Z,2.67
2023-02-17T19:25:05.824Z,6.40
2023-02-17T19:27:34.347Z,4.63
2023-02-17T19:30:02.384Z,2.67
2023-02-17T19:32:31.838Z,3.80
2023-02-17T19:34:59.890Z,4.37
2023-02-17T19:37:27.978Z,4.30
2023-02-17T19:39:56.122Z,4.83
2023-02-17T19:42:24.373Z,3.47
2023-02-17T19:44:52.433Z,4.67
2023-02-17T19:47:20.473Z,3.00
2023-02-17T19:49:49.890Z,4.93
2023-02-17T19:52:17.921Z,4.43
2023-02-17T19:54:45.904Z,3.43
2023-02-17T19:57:17.280Z,4.13
2023-02-17T19:59:45.604Z,4.10
2023-02-17T20:02:14.663Z,3.43
2023-02-17T20:04:42.953Z,7.20
2023-02-17T20:07:12.302Z,5.03
2023-02-17T20:09:40.319Z,5.07
2023-02-17T20:12:08.820Z,5.30
2023-02-17T20:14:36.944Z,7.07
2023-02-17T20:17:05.245Z,4.43
2023-02-17T20:19:33.190Z,5.00
2023-02-17T20:22:01.167Z,7.67
2023-02-17T20:24:30.584Z,9.93
2023-02-17T20:26:58.597Z,5.30
2023-02-17T20:29:26.641Z,4.93
2023-02-17T20:31:55.273Z,3.80
2023-02-17T20:34:29.732Z,4.80
2023-02-17T20:36:58.076Z,6.43
2023-02-17T20:39:26.870Z,10.23
2023-02-17T20:41:57.612Z,6.40
2023-02-17T20:44:27.890Z,4.20
2023-02-17T20:46:58.155Z,6.00
2023-02-17T20:49:26.461Z,5.43
2023-02-17T20:51:54.544Z,5.50
2023-02-17T20:54:24.618Z,4.73
2023-02-17T20:56:52.943Z,5.07
2023-02-17T20:59:22.341Z,6.33
2023-02-17T21:01:50.648Z,5.50
2023-02-17T21:04:18.793Z,5.20
2023-02-17T21:06:47.406Z,4.17
2023-02-17T21:09:17.329Z,6.77
2023-02-17T21:11:45.905Z,7.20
2023-02-17T21:14:14.569Z,6.17
2023-02-17T21:16:43.973Z,5.00
2023-02-17T21:19:11.945Z,7.03
2023-02-17T21:21:40.911Z,6.40
2023-02-17T21:24:09.042Z,4.80
2023-02-17T21:26:37.127Z,6.10
2023-02-17T21:29:05.257Z,6.40
2023-02-17T21:31:33.463Z,4.70
2023-02-17T21:34:02.855Z,6.13
2023-02-17T21:36:31.070Z,6.23
2023-02-17T21:38:59.386Z,9.50
2023-02-17T21:41:30.252Z,5.10
2023-02-17T21:44:15.852Z,5.10
2023-02-17T21:46:44.262Z,6.30
2023-02-17T21:49:14.646Z,6.10
2023-02-17T21:51:43.304Z,4.77
2023-02-17T21:54:12.171Z,5.47
2023-02-17T21:56:40.139Z,7.33
2023-02-17T21:59:08.914Z,6.73
2023-02-17T22:01:37.382Z,5.17
2023-02-17T22:04:05.865Z,6.63
2023-02-17T22:06:37.107Z,6.80
2023-02-17T22:09:06.992Z,4.70
2023-02-17T22:11:36.933Z,4.40
2023-02-17T22:14:07.656Z,5.43
2023-02-17T22:16:37.096Z,5.60
2023-02-17T22:19:06.364Z,5.97
2023-02-17T22:21:35.982Z,5.00
2023-02-17T22:24:04.143Z,7.07
2023-02-17T22:26:32.579Z,7.27
2023-02-17T22:29:00.582Z,3.90
2023-02-17T22:31:30.882Z,7.40
2023-02-17T22:34:01.329Z,7.60
2023-02-17T22:36:31.589Z,5.47
2023-02-17T22:39:01.169Z,3.70
2023-02-17T22:41:29.711Z,6.83
2023-02-17T22:43:57.733Z,4.80
2023-02-17T22:46:27.246Z,6.50
2023-02-17T22:48:57.038Z,7.20
2023-02-17T22:51:27.205Z,6.03
2023-02-17T22:53:55.187Z,5.20
2023-02-17T22:56:24.939Z,6.73
2023-02-17T22:58:56.328Z,6.87
2023-02-17T23:01:25.510Z,7.30
2023-02-17T23:03:55.038Z,8.83
2023-02-17T23:06:25.504Z,6.63
2023-02-17T23:08:54.486Z,8.37
2023-02-17T23:11:40.482Z,5.97
2023-02-17T23:14:09.129Z,6.97
2023-02-17T23:16:37.566Z,6.17
2023-02-17T23:19:08.098Z,8.00
2023-02-17T23:21:36.746Z,9.20
2023-02-17T23:24:05.220Z,6.83
2023-02-17T23:26:34.601Z,8.63
2023-02-17T23:29:02.605Z,6.97
2023-02-17T23:31:30.959Z,9.53
2023-02-17T23:33:59.081Z,6.50
2023-02-17T23:36:27.063Z,7.47
2023-02-17T23:38:56.557Z,5.67
2023-02-17T23:41:24.550Z,5.20
2023-02-17T23:43:53.976Z,8.03
2023-02-17T23:46:22.487Z,20.57
2023-02-17T23:48:50.571Z,9.47
2023-02-17T23:51:19.938Z,11.07
2023-02-17T23:53:48.259Z,8.37
2023-02-17T23:56:19.045Z,9.47
2023-02-17T23:58:47.187Z,10.90
